createdAt,value
2019-04-22T00:02:03.870Z,58.00
2019-04-22T00:04:45.050Z,58.40
2019-04-22T00:07:22.183Z,59.20
2019-04-22T00:09:58.308Z,58.90
2019-04-22T00:12:36.693Z,59.30
2019-04-22T00:14:59.663Z,59.40
2019-04-22T00:17:40.073Z,59.40
2019-04-22T00:20:04.906Z,59.10
2019-04-22T00:22:32.648Z,59.10
2019-04-22T00:25:10.567Z,58.80
2019-04-22T00:27:33.952Z,60.10
2019-04-22T00:29:59.899Z,60.50
2019-04-22T00:32:31.551Z,60.70
2019-04-22T00:35:00.594Z,61.50
2019-04-22T00:37:39.052Z,62.10
2019-04-22T00:40:07.278Z,61.40
2019-04-22T00:42:45.641Z,60.70
2019-04-22T00:45:11.631Z,61.30
2019-04-22T00:47:52.535Z,60.70
2019-04-22T00:50:23.809Z,61.70
2019-04-22T00:52:40.447Z,61.90
2019-04-22T00:55:15.213Z,61.10
2019-04-22T00:57:42.571Z,60.80
2019-04-22T01:00:11.949Z,60.70
2019-04-22T01:02:49.567Z,61.00
2019-04-22T01:05:16.631Z,62.10
2019-04-22T01:07:44.523Z,61.80
2019-04-22T01:10:18.774Z,61.00
2019-04-22T01:12:46.757Z,60.70
2019-04-22T01:15:17.077Z,61.10
2019-04-22T01:17:44.983Z,61.60
2019-04-22T01:20:29.392Z,61.90
2019-04-22T01:22:45.213Z,61.50
2019-04-22T01:25:14.688Z,61.60
2019-04-22T01:27:40.291Z,63.50
2019-04-22T01:30:08.481Z,62.60
2019-04-22T01:32:31.098Z,62.70
2019-04-22T01:35:09.838Z,62.00
2019-04-22T01:37:45.578Z,61.10
2019-04-22T01:40:23.826Z,61.80
2019-04-22T01:42:56.263Z,61.80
2019-04-22T01:45:26.153Z,61.60
2019-04-22T01:47:49.093Z,61.40
2019-04-22T01:50:26.530Z,61.40
2019-04-22T01:53:03.326Z,62.00
2019-04-22T01:55:32.418Z,61.70
2019-04-22T01:57:54.094Z,60.90
2019-04-22T02:00:34.378Z,61.80
2019-04-22T02:03:07.324Z,61.90
2019-04-22T02:05:29.633Z,62.20
2019-04-22T02:08:09.629Z,63.40
2019-04-22T02:10:36.242Z,63.70
2019-04-22T02:13:03.066Z,63.90
2019-04-22T02:15:31.470Z,62.60
2019-04-22T02:18:11.759Z,62.40
2019-04-22T02:20:37.600Z,63.30
2019-04-22T02:23:40.915Z,63.80
2019-04-22T02:25:56.449Z,64.10
2019-04-22T02:28:25.729Z,64.70
2019-04-22T02:31:13.875Z,63.80
2019-04-22T02:38:44.559Z,62.80
2019-04-22T02:46:15.676Z,63.30
2019-04-22T02:48:48.229Z,63.60
2019-04-22T02:51:08.736Z,63.70
2019-04-22T02:54:00.534Z,64.20
2019-04-22T02:56:15.627Z,64.90
2019-04-22T03:01:05.965Z,64.60
2019-04-22T03:13:51.125Z,64.90
2019-04-22T03:21:15.927Z,64.20
2019-04-22T03:23:45.494Z,64.50
2019-04-22T03:26:18.465Z,65.10
2019-04-22T03:28:47.686Z,65.00
2019-04-22T03:41:51.895Z,66.40
2019-04-22T03:46:46.865Z,65.40
2019-04-22T03:54:13.125Z,66.60
2019-04-22T03:57:21.943Z,65.60
2019-04-22T03:59:22.125Z,65.60
2019-04-22T04:01:46.434Z,65.40
2019-04-22T04:04:24.312Z,65.30
2019-04-22T04:06:50.209Z,64.90
2019-04-22T04:09:16.826Z,65.20
2019-04-22T04:11:57.147Z,65.30
2019-04-22T04:14:19.559Z,66.10
2019-04-22T04:16:50.534Z,66.60
2019-04-22T04:19:19.661Z,65.30
2019-04-22T04:24:42.219Z,66.10
2019-04-22T04:29:27.824Z,66.50
2019-04-22T04:31:51.310Z,65.60
2019-04-22T04:34:28.597Z,65.70
2019-04-22T04:36:56.836Z,65.80
2019-04-22T04:46:51.539Z,67.50
2019-04-22T04:51:47.176Z,66.30
2019-04-22T04:56:56.753Z,66.00
2019-04-22T04:59:29.316Z,65.50
2019-04-22T05:04:26.422Z,65.60
2019-04-22T05:14:28.799Z,70.00
2019-04-22T05:16:54.046Z,68.20
2019-04-22T05:19:22.549Z,68.70
2019-04-22T05:21:53.457Z,67.10
2019-04-22T05:24:24.284Z,67.20
2019-04-22T05:27:15.065Z,67.00
2019-04-22T05:29:34.346Z,66.80
2019-04-22T05:34:25.847Z,68.90
2019-04-22T05:36:52.823Z,68.30
2019-04-22T05:39:22.665Z,67.10
2019-04-22T05:42:00.952Z,63.70
2019-04-22T05:44:39.560Z,61.90
2019-04-22T05:46:52.793Z,58.00
2019-04-22T05:51:57.018Z,57.50
2019-04-22T05:54:28.949Z,53.90
2019-04-22T05:56:51.940Z,51.50
2019-04-22T05:59:32.000Z,50.20
2019-04-22T06:04:32.410Z,47.20
2019-04-22T06:07:00.465Z,46.10
2019-04-22T06:09:28.762Z,47.20
2019-04-22T06:11:59.096Z,47.00
2019-04-22T06:14:30.804Z,45.80
2019-04-22T06:17:08.278Z,43.20
2019-04-22T06:19:31.584Z,42.50
2019-04-22T06:22:06.847Z,41.20
2019-04-22T06:24:38.880Z,40.00
2019-04-22T06:29:32.013Z,37.30
2019-04-22T06:32:23.106Z,37.60
2019-04-22T06:34:35.817Z,36.20
2019-04-22T06:37:16.002Z,35.10
2019-04-22T06:39:36.922Z,33.90
2019-04-22T06:44:44.102Z,32.30
2019-04-22T06:47:15.003Z,31.50
2019-04-22T06:49:42.187Z,30.80
2019-04-22T06:52:19.668Z,32.10
2019-04-22T06:55:03.916Z,32.40
2019-04-22T06:57:16.858Z,34.00
2019-04-22T06:59:42.648Z,36.80
2019-04-22T07:02:16.589Z,38.80
2019-04-22T07:04:49.514Z,40.00
2019-04-22T07:07:12.819Z,40.50
2019-04-22T07:09:48.689Z,40.00
2019-04-22T07:14:48.816Z,38.50
2019-04-22T07:17:23.251Z,38.80
2019-04-22T07:19:47.178Z,38.50
2019-04-22T07:22:22.818Z,39.80
2019-04-22T07:24:53.903Z,38.90
2019-04-22T07:27:23.438Z,39.20
2019-04-22T07:29:58.189Z,40.80
2019-04-22T07:32:39.926Z,41.50
2019-04-22T07:34:52.801Z,43.70
2019-04-22T07:37:31.769Z,44.40
2019-04-22T07:39:50.329Z,44.40
2019-04-22T07:42:24.789Z,46.10
2019-04-22T07:44:58.051Z,48.90
2019-04-22T07:50:01.979Z,44.10
2019-04-22T07:52:27.793Z,44.50
2019-04-22T07:54:59.525Z,44.10
2019-04-22T07:57:32.630Z,42.90
2019-04-22T08:00:02.946Z,42.30
2019-04-22T08:02:32.804Z,43.90
2019-04-22T08:05:05.435Z,44.80
2019-04-22T08:07:30.157Z,45.40
2019-04-22T08:10:08.469Z,43.10
2019-04-22T08:12:36.014Z,44.10
2019-04-22T08:14:58.371Z,44.50
2019-04-22T08:17:53.427Z,41.90
2019-04-22T08:20:09.268Z,40.20
2019-04-22T08:22:34.072Z,40.80
2019-04-22T08:25:06.312Z,40.20
2019-04-22T08:27:35.320Z,38.70
2019-04-22T08:30:14.438Z,38.00
2019-04-22T08:32:41.266Z,40.10
2019-04-22T08:35:13.198Z,39.10
2019-04-22T08:37:51.186Z,39.30
2019-04-22T08:40:21.307Z,39.70
2019-04-22T08:42:53.108Z,38.70
2019-04-22T08:45:16.090Z,37.80
2019-04-22T08:47:41.778Z,38.00
2019-04-22T08:50:16.388Z,38.80
2019-04-22T08:52:49.467Z,39.60
2019-04-22T08:55:20.658Z,39.70
2019-04-22T08:58:08.443Z,37.90
2019-04-22T09:00:28.004Z,38.20
2019-04-22T09:02:54.116Z,38.60
2019-04-22T09:05:37.407Z,40.10
2019-04-22T09:07:56.767Z,38.20
2019-04-22T09:10:24.181Z,38.50
2019-04-22T09:13:00.857Z,38.10
2019-04-22T09:15:26.657Z,37.10
2019-04-22T09:17:59.788Z,41.20
2019-04-22T09:20:28.159Z,38.70
2019-04-22T09:22:55.973Z,37.80
2019-04-22T09:25:29.467Z,37.80
2019-04-22T09:27:56.066Z,37.80
2019-04-22T09:30:37.162Z,40.50
2019-04-22T09:33:04.255Z,37.70
2019-04-22T09:38:16.940Z,35.40
2019-04-22T09:40:45.890Z,35.40
2019-04-22T09:43:05.062Z,35.60
2019-04-22T09:45:29.421Z,35.70
2019-04-22T09:48:08.422Z,35.60
2019-04-22T09:50:38.021Z,35.80
2019-04-22T09:53:08.460Z,35.30
2019-04-22T09:55:37.452Z,35.20
2019-04-22T09:58:07.118Z,33.60
2019-04-22T10:00:42.979Z,34.60
2019-04-22T10:03:07.106Z,35.50
2019-04-22T10:05:40.771Z,34.00
2019-04-22T10:08:21.852Z,33.70
2019-04-22T10:10:46.479Z,32.20
2019-04-22T10:13:18.940Z,33.50
2019-04-22T10:15:51.507Z,34.30
2019-04-22T10:18:20.308Z,33.00
2019-04-22T10:20:51.861Z,33.00
2019-04-22T10:23:20.307Z,34.20
2019-04-22T10:25:45.495Z,34.50
2019-04-22T10:28:26.985Z,34.40
2019-04-22T10:30:47.059Z,37.20
2019-04-22T10:33:12.114Z,37.40
2019-04-22T10:35:25.291Z,34.70
2019-04-22T10:37:54.216Z,34.40
2019-04-22T10:40:30.338Z,35.90
2019-04-22T10:43:03.099Z,34.80
2019-04-22T10:45:32.408Z,35.90
2019-04-22T10:48:01.652Z,36.70
2019-04-22T10:50:42.915Z,34.60
2019-04-22T10:53:13.314Z,35.20
2019-04-22T10:55:45.166Z,35.30
2019-04-22T10:58:14.830Z,33.50
2019-04-22T11:00:45.330Z,35.30
2019-04-22T11:03:14.401Z,34.10
2019-04-22T11:05:44.280Z,35.10
2019-04-22T11:08:20.416Z,35.20
2019-04-22T11:11:00.729Z,33.90
2019-04-22T11:13:15.890Z,33.40
2019-04-22T11:15:46.640Z,35.20
2019-04-22T11:18:17.791Z,34.20
2019-04-22T11:20:47.392Z,32.00
2019-04-22T11:23:16.621Z,33.80
2019-04-22T11:25:46.099Z,34.10
2019-04-22T11:28:16.042Z,34.00
2019-04-22T11:30:45.225Z,33.60
2019-04-22T11:33:14.493Z,36.20
2019-04-22T11:35:43.896Z,34.40
2019-04-22T11:38:13.078Z,35.10
2019-04-22T11:40:46.270Z,33.90
2019-04-22T11:43:12.378Z,34.10
2019-04-22T11:45:42.595Z,32.90
2019-04-22T11:48:11.569Z,34.50
2019-04-22T11:50:41.981Z,33.70
2019-04-22T11:53:10.974Z,34.00
2019-04-22T11:55:40.594Z,33.40
2019-04-22T11:58:10.641Z,34.50
2019-04-22T12:00:40.939Z,33.50
2019-04-22T12:03:10.668Z,32.20
2019-04-22T12:05:39.881Z,35.30
2019-04-22T12:08:09.240Z,33.60
2019-04-22T12:10:46.843Z,33.70
2019-04-22T12:13:08.199Z,32.70
2019-04-22T12:15:37.379Z,34.20
2019-04-22T12:18:07.071Z,33.20
2019-04-22T12:20:39.170Z,33.50
2019-04-22T12:23:09.395Z,31.80
2019-04-22T12:25:47.634Z,34.20
2019-04-22T12:28:09.143Z,32.10
2019-04-22T12:30:39.673Z,34.10
2019-04-22T12:33:10.949Z,30.90
2019-04-22T12:35:38.809Z,33.70
2019-04-22T12:38:10.276Z,30.60
2019-04-22T12:40:48.609Z,32.90
2019-04-22T12:43:12.175Z,31.50
2019-04-22T12:45:40.395Z,30.20
2019-04-22T12:48:10.131Z,29.90
2019-04-22T12:50:43.462Z,32.20
2019-04-22T12:53:13.853Z,31.90
2019-04-22T12:55:39.754Z,30.60
2019-04-22T12:58:09.861Z,33.30
2019-04-22T13:00:40.133Z,32.80
2019-04-22T13:03:10.959Z,31.50
2019-04-22T13:05:40.877Z,32.30
2019-04-22T13:08:11.552Z,32.00
2019-04-22T13:10:50.495Z,33.20
2019-04-22T13:13:11.288Z,32.00
2019-04-22T13:15:41.290Z,31.40
2019-04-22T13:18:19.261Z,31.40
2019-04-22T13:20:44.291Z,32.40
2019-04-22T13:23:13.846Z,33.00
2019-04-22T13:25:42.943Z,32.40
2019-04-22T13:28:13.283Z,32.10
2019-04-22T13:30:41.840Z,33.10
2019-04-22T13:33:10.856Z,32.60
2019-04-22T13:35:39.808Z,33.10
2019-04-22T13:38:09.090Z,33.30
2019-04-22T13:40:39.403Z,33.10
2019-04-22T13:43:09.075Z,32.20
2019-04-22T13:45:38.602Z,31.80
2019-04-22T13:48:22.072Z,33.70
2019-04-22T13:51:03.972Z,31.70
2019-04-22T13:53:46.161Z,32.20
2019-04-22T13:56:07.234Z,31.50
2019-04-22T13:58:21.921Z,31.80
2019-04-22T14:00:40.603Z,32.60
2019-04-22T14:03:18.258Z,32.80
2019-04-22T14:05:53.016Z,32.90
2019-04-22T14:08:24.878Z,32.00
2019-04-22T14:10:54.384Z,32.80
2019-04-22T14:13:23.850Z,33.20
2019-04-22T14:15:53.068Z,32.40
2019-04-22T14:18:23.124Z,32.50
2019-04-22T14:20:52.072Z,32.00
2019-04-22T14:23:22.555Z,31.40
2019-04-22T14:25:52.802Z,30.70
2019-04-22T14:28:23.364Z,30.00
2019-04-22T14:30:52.801Z,31.00
2019-04-22T14:33:22.402Z,32.10
2019-04-22T14:35:51.996Z,32.10
2019-04-22T14:38:21.873Z,31.10
2019-04-22T14:40:51.914Z,33.20
2019-04-22T14:43:50.191Z,31.20
2019-04-22T14:46:20.706Z,32.60
2019-04-22T14:48:46.030Z,34.20
2019-04-22T14:51:14.842Z,33.30
2019-04-22T14:53:43.487Z,33.10
2019-04-22T14:55:54.648Z,33.40
2019-04-22T14:58:24.666Z,33.40
2019-04-22T15:00:55.182Z,32.90
2019-04-22T15:03:23.858Z,33.00
2019-04-22T15:05:54.419Z,32.50
2019-04-22T15:08:22.510Z,32.20
2019-04-22T15:10:51.777Z,32.20
2019-04-22T15:13:21.294Z,31.90
2019-04-22T15:15:56.829Z,32.20
2019-04-22T15:18:41.990Z,33.00
2019-04-22T15:21:16.934Z,31.70
2019-04-22T15:23:46.680Z,33.00
2019-04-22T15:26:17.789Z,31.80
2019-04-22T15:28:47.222Z,32.40
2019-04-22T15:31:17.377Z,32.10
2019-04-22T15:33:50.126Z,33.40
2019-04-22T15:36:16.217Z,32.90
2019-04-22T15:38:45.213Z,33.30
2019-04-22T15:41:14.666Z,33.60
2019-04-22T15:43:45.698Z,33.00
2019-04-22T15:46:15.963Z,33.00
2019-04-22T15:48:46.283Z,33.00
2019-04-22T15:51:16.329Z,34.20
2019-04-22T15:53:45.567Z,33.90
2019-04-22T15:56:14.763Z,33.80
2019-04-22T15:58:43.898Z,34.00
2019-04-22T16:01:21.679Z,33.80
2019-04-22T16:03:42.798Z,34.10
2019-04-22T16:06:12.251Z,34.00
2019-04-22T16:08:41.254Z,34.40
2019-04-22T16:11:11.422Z,34.40
2019-04-22T16:13:42.176Z,33.80
2019-04-22T16:16:10.642Z,34.50
2019-04-22T16:18:40.294Z,34.50
2019-04-22T16:21:09.465Z,34.50
2019-04-22T16:23:40.469Z,33.50
2019-04-22T16:26:18.025Z,34.50
2019-04-22T16:28:47.431Z,33.80
2019-04-22T16:31:17.563Z,34.10
2019-04-22T16:33:47.995Z,34.90
2019-04-22T16:36:16.901Z,34.90
2019-04-22T16:38:46.859Z,34.30
2019-04-22T16:41:17.075Z,34.60
2019-04-22T16:43:46.724Z,34.80
2019-04-22T16:46:15.904Z,34.60
2019-04-22T16:48:45.420Z,35.60
2019-04-22T16:51:15.976Z,35.10
2019-04-22T16:53:45.217Z,35.60
2019-04-22T16:56:15.146Z,34.70
2019-04-22T16:58:44.310Z,34.40
2019-04-22T17:01:32.624Z,34.60
2019-04-22T17:04:16.426Z,33.60
2019-04-22T17:06:50.665Z,33.70
2019-04-22T17:09:19.824Z,33.40
2019-04-22T17:11:49.890Z,33.80
2019-04-22T17:14:27.270Z,33.50
2019-04-22T17:16:52.738Z,34.00
2019-04-22T17:19:21.639Z,34.60
2019-04-22T17:21:51.001Z,35.10
2019-04-22T17:24:19.897Z,36.20
2019-04-22T17:26:48.847Z,36.30
2019-04-22T17:29:18.649Z,36.40
2019-04-22T17:31:56.434Z,36.50
2019-04-22T17:34:17.868Z,37.20
2019-04-22T17:36:49.152Z,37.30
2019-04-22T17:39:31.608Z,37.80
2019-04-22T17:42:12.493Z,38.40
2019-04-22T17:44:42.615Z,38.30
2019-04-22T17:47:20.637Z,38.60
2019-04-22T17:50:00.380Z,38.40
2019-04-22T17:52:42.053Z,38.80
2019-04-22T17:54:51.497Z,38.90
2019-04-22T17:57:28.008Z,39.00
2019-04-22T17:59:55.269Z,39.30
2019-04-22T18:02:26.781Z,39.70
2019-04-22T18:04:50.780Z,39.90
2019-04-22T18:07:37.071Z,39.50
2019-04-22T18:12:40.093Z,40.30
2019-04-22T18:15:17.799Z,40.60
2019-04-22T18:17:41.202Z,40.50
2019-04-22T18:19:58.332Z,40.70
2019-04-22T18:22:24.512Z,40.40
2019-04-22T18:24:58.201Z,40.40
2019-04-22T18:27:55.179Z,40.90
2019-04-22T18:30:03.904Z,40.90
2019-04-22T18:32:30.835Z,40.90
2019-04-22T18:35:00.847Z,40.90
2019-04-22T18:37:41.029Z,41.30
2019-04-22T18:40:12.975Z,41.30
2019-04-22T18:42:45.690Z,41.30
2019-04-22T18:45:32.493Z,41.90
2019-04-22T18:47:41.359Z,42.00
2019-04-22T18:50:08.670Z,42.20
2019-04-22T18:52:43.602Z,42.40
2019-04-22T18:55:16.395Z,42.40
2019-04-22T18:57:59.126Z,42.50
2019-04-22T19:00:21.334Z,42.30
2019-04-22T19:02:56.972Z,42.30
2019-04-22T19:05:34.783Z,42.70
2019-04-22T19:08:18.396Z,42.70
2019-04-22T19:11:00.697Z,42.90
2019-04-22T19:15:54.326Z,43.20
2019-04-22T19:18:25.648Z,43.40
2019-04-22T19:20:53.742Z,43.60
2019-04-22T19:23:25.712Z,44.00
2019-04-22T19:25:43.788Z,44.00
2019-04-22T19:28:23.912Z,44.70
2019-04-22T19:30:47.969Z,44.90
2019-04-22T19:33:23.857Z,45.00
2019-04-22T19:35:43.317Z,45.60
2019-04-22T19:38:14.295Z,45.90
2019-04-22T19:41:00.507Z,46.40
2019-04-22T19:43:25.076Z,46.60
2019-04-22T19:45:53.708Z,47.10
2019-04-22T19:48:35.951Z,47.40
2019-04-22T19:51:06.112Z,47.50
2019-04-22T19:53:30.772Z,47.50
2019-04-22T19:55:54.095Z,48.00
2019-04-22T19:58:29.242Z,48.00
2019-04-22T20:01:16.142Z,48.10
2019-04-22T20:04:08.627Z,47.90
2019-04-22T20:06:35.308Z,48.50
2019-04-22T20:09:05.750Z,48.40
2019-04-22T20:11:34.192Z,48.40
2019-04-22T20:14:06.381Z,48.60
2019-04-22T20:16:32.528Z,48.90
2019-04-22T20:19:15.062Z,49.70
2019-04-22T20:21:40.598Z,49.40
2019-04-22T20:24:00.859Z,49.60
2019-04-22T20:26:45.691Z,50.20
2019-04-22T20:29:11.674Z,49.70
2019-04-22T20:31:45.208Z,49.50
2019-04-22T20:34:16.190Z,49.20
2019-04-22T20:39:06.467Z,49.30
2019-04-22T20:41:36.716Z,49.20
2019-04-22T20:44:15.941Z,49.40
2019-04-22T20:46:44.645Z,49.50
2019-04-22T20:49:15.191Z,50.40
2019-04-22T20:51:55.639Z,50.40
2019-04-22T20:54:11.558Z,50.40
2019-04-22T20:56:36.929Z,50.70
2019-04-22T20:59:16.285Z,50.90
2019-04-22T21:01:45.811Z,50.60
2019-04-22T21:04:01.547Z,50.50
2019-04-22T21:06:42.893Z,51.40
2019-04-22T21:09:18.549Z,51.50
2019-04-22T21:11:45.148Z,51.80
2019-04-22T21:14:18.864Z,52.00
2019-04-22T21:16:51.604Z,51.70
2019-04-22T21:19:32.464Z,52.50
2019-04-22T21:21:50.200Z,53.20
2019-04-22T21:24:18.631Z,53.10
2019-04-22T21:26:51.695Z,53.60
2019-04-22T21:29:15.929Z,53.20
2019-04-22T21:31:53.122Z,53.20
2019-04-22T21:34:17.257Z,52.60
2019-04-22T21:36:56.099Z,53.30
2019-04-22T21:39:17.706Z,53.00
2019-04-22T21:41:52.817Z,52.90
2019-04-22T21:44:20.452Z,53.80
2019-04-22T21:47:03.122Z,54.00
2019-04-22T21:49:29.694Z,53.30
2019-04-22T21:52:01.299Z,53.00
2019-04-22T21:54:28.348Z,53.40
2019-04-22T21:59:40.207Z,53.70
2019-04-22T22:02:09.903Z,53.70
2019-04-22T22:04:36.064Z,54.20
2019-04-22T22:06:58.942Z,54.40
2019-04-22T22:09:42.961Z,54.70
2019-04-22T22:12:08.193Z,55.80
2019-04-22T22:14:39.200Z,55.00
2019-04-22T22:17:15.865Z,54.80
2019-04-22T22:19:44.445Z,55.30
2019-04-22T22:22:28.421Z,54.60
2019-04-22T22:24:45.177Z,55.10
2019-04-22T22:27:14.238Z,55.10
2019-04-22T22:32:16.532Z,56.40
2019-04-22T22:34:46.501Z,56.20
2019-04-22T22:37:11.292Z,56.20
2019-04-22T22:39:41.747Z,56.00
2019-04-22T22:42:01.686Z,56.10
2019-04-22T22:44:36.819Z,55.80
2019-04-22T22:47:18.286Z,56.20
2019-04-22T22:54:54.203Z,56.60
2019-04-22T22:57:29.314Z,57.00
2019-04-22T22:59:50.064Z,57.60
2019-04-22T23:02:22.982Z,56.70
2019-04-22T23:04:51.177Z,57.30
2019-04-22T23:07:28.774Z,57.40
2019-04-22T23:09:58.596Z,57.50
2019-04-22T23:12:34.735Z,58.00
2019-04-22T23:14:54.386Z,57.80
2019-04-22T23:17:13.549Z,59.20
2019-04-22T23:19:40.459Z,59.30
2019-04-22T23:22:17.880Z,59.60
2019-04-22T23:25:00.231Z,59.40
2019-04-22T23:27:40.352Z,59.30
2019-04-22T23:30:04.058Z,59.50
2019-04-22T23:32:37.730Z,59.90
2019-04-22T23:35:16.768Z,59.60
2019-04-22T23:37:54.286Z,59.20
2019-04-22T23:40:32.598Z,59.60
2019-04-22T23:42:58.886Z,59.40
2019-04-22T23:45:26.795Z,59.30
2019-04-22T23:47:46.157Z,60.00
2019-04-22T23:50:26.642Z,59.90
2019-04-22T23:53:00.604Z,60.30
2019-04-22T23:55:34.071Z,60.00
2019-04-22T23:58:13.502Z,60.40
